< < Back
Terminal Aerodrome Forecast


Current Version              Previous Versions:   1  2  3  4  5  6  7  8  9  

Terminal Aerodrome Forecast

107
FTUS42 KILM 050522
TAFILM
TAF
KILM 050522Z 0506/0606 21008KT P6SM VCSH FEW045 BKN140
     FM051300 26007KT P6SM FEW040 SCT140 BKN250
     FM051900 20009KT P6SM FEW050 SCT140 SCT250=



Latest METAR

662
SAUS70 KWBC 051200 RRH
MTRILM
METAR KILM 051153Z 22006KT 10SM CLR 25/20 A3014 RMK AO2 SLP207 T02500200
10267 20239 51017


USA.gov is the U.S. government's official web portal to all federal, state and local government web resources and services.